sensor_id;sensor_type;location;lat;lon;timestamp;temperature;humidity
7325;DHT22;3703;48.016;7.802;2022-08-25T00:01:54;23.90;99.90
7325;DHT22;3703;48.016;7.802;2022-08-25T00:04:43;23.90;99.90
7325;DHT22;3703;48.016;7.802;2022-08-25T00:07:31;23.90;99.90
7325;DHT22;3703;48.016;7.802;2022-08-25T00:10:20;23.90;99.90
7325;DHT22;3703;48.016;7.802;2022-08-25T00:13:08;23.80;99.90
7325;DHT22;3703;48.016;7.802;2022-08-25T00:15:56;23.70;99.90
7325;DHT22;3703;48.016;7.802;2022-08-25T00:18:46;23.80;99.90
7325;DHT22;3703;48.016;7.802;2022-08-25T00:21:35;23.70;99.90
7325;DHT22;3703;48.016;7.802;2022-08-25T00:24:23;23.70;99.90
7325;DHT22;3703;48.016;7.802;2022-08-25T00:27:12;23.50;99.90
7325;DHT22;3703;48.016;7.802;2022-08-25T00:30:00;23.50;99.90
7325;DHT22;3703;48.016;7.802;2022-08-25T00:32:48;23.40;99.90
7325;DHT22;3703;48.016;7.802;2022-08-25T00:35:36;23.50;99.90
7325;DHT22;3703;48.016;7.802;2022-08-25T00:38:25;23.40;99.90
7325;DHT22;3703;48.016;7.802;2022-08-25T00:41:16;23.20;99.90
7325;DHT22;3703;48.016;7.802;2022-08-25T00:44:09;23.30;1.00
7325;DHT22;3703;48.016;7.802;2022-08-25T00:46:59;23.00;99.90
7325;DHT22;3703;48.016;7.802;2022-08-25T00:49:50;23.00;1.00
7325;DHT22;3703;48.016;7.802;2022-08-25T00:52:42;23.00;1.00
7325;DHT22;3703;48.016;7.802;2022-08-25T00:55:35;22.90;1.00
7325;DHT22;3703;48.016;7.802;2022-08-25T00:58:27;22.80;1.00
7325;DHT22;3703;48.016;7.802;2022-08-25T01:01:17;22.70;1.00
7325;DHT22;3703;48.016;7.802;2022-08-25T01:04:05;22.80;1.00
7325;DHT22;3703;48.016;7.802;2022-08-25T01:06:53;22.60;1.00
7325;DHT22;3703;48.016;7.802;2022-08-25T01:09:42;22.80;1.00
7325;DHT22;3703;48.016;7.802;2022-08-25T01:12:30;22.60;1.00
7325;DHT22;3703;48.016;7.802;2022-08-25T01:15:18;22.50;1.00
7325;DHT22;3703;48.016;7.802;2022-08-25T01:18:07;22.50;1.00
7325;DHT22;3703;48.016;7.802;2022-08-25T01:20:58;22.50;1.00
7325;DHT22;3703;48.016;7.802;2022-08-25T01:23:46;22.50;1.00
7325;DHT22;3703;48.016;7.802;2022-08-25T01:26:34;22.50;1.00
7325;DHT22;3703;48.016;7.802;2022-08-25T01:29:23;22.60;1.00
7325;DHT22;3703;48.016;7.802;2022-08-25T01:32:13;22.60;1.00
7325;DHT22;3703;48.016;7.802;2022-08-25T01:35:01;22.50;1.00
7325;DHT22;3703;48.016;7.802;2022-08-25T01:37:50;22.30;1.00
7325;DHT22;3703;48.016;7.802;2022-08-25T01:40:39;22.30;1.00
7325;DHT22;3703;48.016;7.802;2022-08-25T01:43:34;22.40;1.00
7325;DHT22;3703;48.016;7.802;2022-08-25T01:46:23;22.30;1.00
7325;DHT22;3703;48.016;7.802;2022-08-25T01:49:11;22.40;1.00
7325;DHT22;3703;48.016;7.802;2022-08-25T01:52:01;22.40;1.00
7325;DHT22;3703;48.016;7.802;2022-08-25T01:54:55;22.30;1.00
7325;DHT22;3703;48.016;7.802;2022-08-25T01:57:43;22.30;1.00
7325;DHT22;3703;48.016;7.802;2022-08-25T02:00:31;22.20;1.00
7325;DHT22;3703;48.016;7.802;2022-08-25T02:03:19;21.90;1.00
7325;DHT22;3703;48.016;7.802;2022-08-25T02:06:09;21.80;1.00
7325;DHT22;3703;48.016;7.802;2022-08-25T02:08:59;21.90;1.00
7325;DHT22;3703;48.016;7.802;2022-08-25T02:11:51;21.80;1.00
7325;DHT22;3703;48.016;7.802;2022-08-25T02:14:39;21.90;1.00
7325;DHT22;3703;48.016;7.802;2022-08-25T02:17:27;21.90;1.00
7325;DHT22;3703;48.016;7.802;2022-08-25T02:20:15;21.70;1.00
7325;DHT22;3703;48.016;7.802;2022-08-25T02:23:04;21.70;1.00
7325;DHT22;3703;48.016;7.802;2022-08-25T02:25:52;21.70;1.00
7325;DHT22;3703;48.016;7.802;2022-08-25T02:28:42;21.70;1.00
7325;DHT22;3703;48.016;7.802;2022-08-25T02:31:29;21.50;1.00
7325;DHT22;3703;48.016;7.802;2022-08-25T02:34:17;21.60;1.00
7325;DHT22;3703;48.016;7.802;2022-08-25T02:37:05;21.60;1.00
7325;DHT22;3703;48.016;7.802;2022-08-25T02:39:53;21.60;1.00
7325;DHT22;3703;48.016;7.802;2022-08-25T02:42:40;21.50;1.00
7325;DHT22;3703;48.016;7.802;2022-08-25T02:45:29;21.20;1.00
7325;DHT22;3703;48.016;7.802;2022-08-25T02:48:17;21.30;1.00
7325;DHT22;3703;48.016;7.802;2022-08-25T02:51:08;21.50;1.00
7325;DHT22;3703;48.016;7.802;2022-08-25T02:53:58;21.10;1.00
7325;DHT22;3703;48.016;7.802;2022-08-25T02:56:46;21.20;1.00
7325;DHT22;3703;48.016;7.802;2022-08-25T02:59:34;21.20;1.00
7325;DHT22;3703;48.016;7.802;2022-08-25T03:02:24;21.30;1.00
7325;DHT22;3703;48.016;7.802;2022-08-25T03:05:14;21.30;1.00
7325;DHT22;3703;48.016;7.802;2022-08-25T03:08:02;21.40;1.00
7325;DHT22;3703;48.016;7.802;2022-08-25T03:10:50;21.40;1.00
7325;DHT22;3703;48.016;7.802;2022-08-25T03:13:39;21.30;1.00
7325;DHT22;3703;48.016;7.802;2022-08-25T03:16:27;21.30;1.00
7325;DHT22;3703;48.016;7.802;2022-08-25T03:19:16;21.40;1.00
7325;DHT22;3703;48.016;7.802;2022-08-25T03:22:04;21.30;1.00
7325;DHT22;3703;48.016;7.802;2022-08-25T03:24:52;21.00;1.00
7325;DHT22;3703;48.016;7.802;2022-08-25T03:28:01;20.70;1.00
7325;DHT22;3703;48.016;7.802;2022-08-25T03:30:49;20.50;1.00
7325;DHT22;3703;48.016;7.802;2022-08-25T03:33:37;20.50;1.00
7325;DHT22;3703;48.016;7.802;2022-08-25T03:36:27;20.40;1.00
7325;DHT22;3703;48.016;7.802;2022-08-25T03:39:16;20.50;1.00
7325;DHT22;3703;48.016;7.802;2022-08-25T03:42:04;20.60;1.00
7325;DHT22;3703;48.016;7.802;2022-08-25T03:44:52;20.50;1.00
7325;DHT22;3703;48.016;7.802;2022-08-25T03:47:44;20.40;1.00
7325;DHT22;3703;48.016;7.802;2022-08-25T03:50:33;20.30;1.00
7325;DHT22;3703;48.016;7.802;2022-08-25T03:53:22;20.30;1.00
7325;DHT22;3703;48.016;7.802;2022-08-25T03:56:10;20.30;1.00
7325;DHT22;3703;48.016;7.802;2022-08-25T03:58:58;20.30;1.00
7325;DHT22;3703;48.016;7.802;2022-08-25T04:01:46;20.30;1.00
7325;DHT22;3703;48.016;7.802;2022-08-25T04:04:34;20.00;1.00
7325;DHT22;3703;48.016;7.802;2022-08-25T04:07:22;19.90;1.00
7325;DHT22;3703;48.016;7.802;2022-08-25T04:10:11;19.90;1.00
7325;DHT22;3703;48.016;7.802;2022-08-25T04:12:59;20.20;1.00
7325;DHT22;3703;48.016;7.802;2022-08-25T04:15:47;19.90;1.00
7325;DHT22;3703;48.016;7.802;2022-08-25T04:18:35;19.80;1.00
7325;DHT22;3703;48.016;7.802;2022-08-25T04:21:23;19.90;1.00
7325;DHT22;3703;48.016;7.802;2022-08-25T04:24:12;19.90;1.00
7325;DHT22;3703;48.016;7.802;2022-08-25T04:27:01;19.90;1.00
7325;DHT22;3703;48.016;7.802;2022-08-25T04:29:49;19.70;1.00
7325;DHT22;3703;48.016;7.802;2022-08-25T04:32:37;19.80;1.00
7325;DHT22;3703;48.016;7.802;2022-08-25T04:35:25;19.80;1.00
7325;DHT22;3703;48.016;7.802;2022-08-25T04:38:12;19.80;1.00
7325;DHT22;3703;48.016;7.802;2022-08-25T04:41:01;19.90;1.00
7325;DHT22;3703;48.016;7.802;2022-08-25T04:43:52;19.90;1.00
7325;DHT22;3703;48.016;7.802;2022-08-25T04:46:43;19.80;1.00
7325;DHT22;3703;48.016;7.802;2022-08-25T04:49:30;19.80;1.00
7325;DHT22;3703;48.016;7.802;2022-08-25T04:52:18;19.70;1.00
7325;DHT22;3703;48.016;7.802;2022-08-25T04:55:06;19.60;1.00
7325;DHT22;3703;48.016;7.802;2022-08-25T04:57:54;19.60;1.00
7325;DHT22;3703;48.016;7.802;2022-08-25T05:00:43;19.60;1.00
7325;DHT22;3703;48.016;7.802;2022-08-25T05:03:32;19.60;1.00
7325;DHT22;3703;48.016;7.802;2022-08-25T05:06:20;19.70;1.00
7325;DHT22;3703;48.016;7.802;2022-08-25T05:09:08;19.70;1.00
7325;DHT22;3703;48.016;7.802;2022-08-25T05:11:56;19.70;1.00
7325;DHT22;3703;48.016;7.802;2022-08-25T05:14:44;19.60;1.00
7325;DHT22;3703;48.016;7.802;2022-08-25T05:17:33;19.60;1.00
7325;DHT22;3703;48.016;7.802;2022-08-25T05:20:21;19.80;1.00
7325;DHT22;3703;48.016;7.802;2022-08-25T05:23:09;20.60;1.00
7325;DHT22;3703;48.016;7.802;2022-08-25T05:26:02;20.00;1.00
7325;DHT22;3703;48.016;7.802;2022-08-25T05:28:53;20.00;1.00
7325;DHT22;3703;48.016;7.802;2022-08-25T05:31:41;19.60;1.00
7325;DHT22;3703;48.016;7.802;2022-08-25T05:34:31;20.10;1.00
7325;DHT22;3703;48.016;7.802;2022-08-25T05:37:19;20.10;1.00
7325;DHT22;3703;48.016;7.802;2022-08-25T05:40:07;20.20;1.00
7325;DHT22;3703;48.016;7.802;2022-08-25T05:42:56;20.00;1.00
7325;DHT22;3703;48.016;7.802;2022-08-25T05:45:44;20.10;1.00
7325;DHT22;3703;48.016;7.802;2022-08-25T05:48:33;20.10;1.00
7325;DHT22;3703;48.016;7.802;2022-08-25T05:51:22;20.40;1.00
7325;DHT22;3703;48.016;7.802;2022-08-25T05:54:11;20.50;1.00
7325;DHT22;3703;48.016;7.802;2022-08-25T05:56:59;20.70;1.00
7325;DHT22;3703;48.016;7.802;2022-08-25T05:59:46;20.70;1.00
7325;DHT22;3703;48.016;7.802;2022-08-25T06:02:35;20.80;1.00
7325;DHT22;3703;48.016;7.802;2022-08-25T06:05:31;20.60;1.00
7325;DHT22;3703;48.016;7.802;2022-08-25T06:08:20;20.80;1.00
7325;DHT22;3703;48.016;7.802;2022-08-25T06:11:09;21.00;1.00
7325;DHT22;3703;48.016;7.802;2022-08-25T06:13:57;20.80;1.00
7325;DHT22;3703;48.016;7.802;2022-08-25T06:16:45;21.10;1.00
7325;DHT22;3703;48.016;7.802;2022-08-25T06:19:33;21.00;1.00
7325;DHT22;3703;48.016;7.802;2022-08-25T06:22:21;21.00;1.00
7325;DHT22;3703;48.016;7.802;2022-08-25T06:25:13;20.80;1.00
7325;DHT22;3703;48.016;7.802;2022-08-25T06:28:02;21.30;1.00
7325;DHT22;3703;48.016;7.802;2022-08-25T06:30:50;21.50;1.00
7325;DHT22;3703;48.016;7.802;2022-08-25T06:33:44;21.80;1.00
7325;DHT22;3703;48.016;7.802;2022-08-25T06:36:33;21.90;1.00
7325;DHT22;3703;48.016;7.802;2022-08-25T06:39:20;21.90;1.00
7325;DHT22;3703;48.016;7.802;2022-08-25T06:42:10;22.00;1.00
7325;DHT22;3703;48.016;7.802;2022-08-25T06:44:58;21.80;1.00
7325;DHT22;3703;48.016;7.802;2022-08-25T06:47:46;22.00;1.00
7325;DHT22;3703;48.016;7.802;2022-08-25T06:50:34;22.20;1.00
7325;DHT22;3703;48.016;7.802;2022-08-25T06:53:21;22.40;1.00
7325;DHT22;3703;48.016;7.802;2022-08-25T06:56:10;22.50;1.00
7325;DHT22;3703;48.016;7.802;2022-08-25T06:58:59;22.60;99.90
7325;DHT22;3703;48.016;7.802;2022-08-25T07:01:47;22.70;99.90
7325;DHT22;3703;48.016;7.802;2022-08-25T07:04:35;22.80;99.90
7325;DHT22;3703;48.016;7.802;2022-08-25T07:07:22;22.80;99.90
7325;DHT22;3703;48.016;7.802;2022-08-25T07:10:10;22.90;99.90
7325;DHT22;3703;48.016;7.802;2022-08-25T07:12:59;23.20;99.90
7325;DHT22;3703;48.016;7.802;2022-08-25T07:15:52;22.90;99.90
7325;DHT22;3703;48.016;7.802;2022-08-25T07:18:41;22.50;1.00
7325;DHT22;3703;48.016;7.802;2022-08-25T07:21:32;22.70;1.00
7325;DHT22;3703;48.016;7.802;2022-08-25T07:24:22;22.70;1.00
7325;DHT22;3703;48.016;7.802;2022-08-25T07:27:10;22.30;1.00
7325;DHT22;3703;48.016;7.802;2022-08-25T07:29:57;22.30;1.00
7325;DHT22;3703;48.016;7.802;2022-08-25T07:32:46;22.30;1.00
7325;DHT22;3703;48.016;7.802;2022-08-25T07:35:34;22.40;1.00
7325;DHT22;3703;48.016;7.802;2022-08-25T07:38:23;22.40;1.00
7325;DHT22;3703;48.016;7.802;2022-08-25T07:41:11;22.50;1.00
7325;DHT22;3703;48.016;7.802;2022-08-25T07:43:59;22.60;99.90
7325;DHT22;3703;48.016;7.802;2022-08-25T07:46:47;22.40;1.00
7325;DHT22;3703;48.016;7.802;2022-08-25T07:49:36;22.40;99.90
7325;DHT22;3703;48.016;7.802;2022-08-25T07:52:24;22.40;99.90
7325;DHT22;3703;48.016;7.802;2022-08-25T07:55:13;22.40;99.90
7325;DHT22;3703;48.016;7.802;2022-08-25T07:58:02;22.60;1.00
7325;DHT22;3703;48.016;7.802;2022-08-25T08:00:50;22.80;1.00
7325;DHT22;3703;48.016;7.802;2022-08-25T08:03:38;23.00;99.90
7325;DHT22;3703;48.016;7.802;2022-08-25T08:06:27;22.80;99.90
7325;DHT22;3703;48.016;7.802;2022-08-25T08:09:15;23.20;99.90
7325;DHT22;3703;48.016;7.802;2022-08-25T08:12:04;23.20;99.90
7325;DHT22;3703;48.016;7.802;2022-08-25T08:14:52;23.30;99.90
7325;DHT22;3703;48.016;7.802;2022-08-25T08:17:40;23.30;99.90
7325;DHT22;3703;48.016;7.802;2022-08-25T08:20:28;23.20;99.90
7325;DHT22;3703;48.016;7.802;2022-08-25T08:23:20;23.50;99.90
7325;DHT22;3703;48.016;7.802;2022-08-25T08:26:12;23.40;99.90
7325;DHT22;3703;48.016;7.802;2022-08-25T08:29:00;23.30;99.90
7325;DHT22;3703;48.016;7.802;2022-08-25T08:31:48;23.40;99.90
7325;DHT22;3703;48.016;7.802;2022-08-25T08:34:36;23.60;99.90
7325;DHT22;3703;48.016;7.802;2022-08-25T08:37:25;23.90;99.90
7325;DHT22;3703;48.016;7.802;2022-08-25T08:40:17;24.30;99.90
7325;DHT22;3703;48.016;7.802;2022-08-25T08:43:10;24.60;99.90
7325;DHT22;3703;48.016;7.802;2022-08-25T08:46:05;24.90;1.00
7325;DHT22;3703;48.016;7.802;2022-08-25T08:49:02;24.70;1.00
7325;DHT22;3703;48.016;7.802;2022-08-25T08:51:57;24.90;13.70
7325;DHT22;3703;48.016;7.802;2022-08-25T08:54:51;25.10;1.00
7325;DHT22;3703;48.016;7.802;2022-08-25T08:57:47;25.40;99.90
7325;DHT22;3703;48.016;7.802;2022-08-25T09:00:39;25.80;1.00
7325;DHT22;3703;48.016;7.802;2022-08-25T09:03:39;26.00;1.00
7325;DHT22;3703;48.016;7.802;2022-08-25T09:06:35;25.90;99.90
7325;DHT22;3703;48.016;7.802;2022-08-25T09:09:28;25.70;99.90
7325;DHT22;3703;48.016;7.802;2022-08-25T09:12:25;26.00;99.90
7325;DHT22;3703;48.016;7.802;2022-08-25T09:15:31;26.20;99.90
7325;DHT22;3703;48.016;7.802;2022-08-25T09:18:43;26.10;1.00
7325;DHT22;3703;48.016;7.802;2022-08-25T09:21:42;26.00;99.90
7325;DHT22;3703;48.016;7.802;2022-08-25T09:24:42;25.90;71.20
7325;DHT22;3703;48.016;7.802;2022-08-25T09:27:40;26.00;29.70
7325;DHT22;3703;48.016;7.802;2022-08-25T09:30:41;26.40;99.90
7325;DHT22;3703;48.016;7.802;2022-08-25T09:33:34;26.80;1.00
7325;DHT22;3703;48.016;7.802;2022-08-25T09:36:21;27.10;99.90
7325;DHT22;3703;48.016;7.802;2022-08-25T09:39:11;26.90;1.00
7325;DHT22;3703;48.016;7.802;2022-08-25T09:41:59;27.30;1.00
7325;DHT22;3703;48.016;7.802;2022-08-25T09:44:48;27.60;42.60
7325;DHT22;3703;48.016;7.802;2022-08-25T09:47:43;27.60;99.90
7325;DHT22;3703;48.016;7.802;2022-08-25T09:50:31;27.90;1.00
7325;DHT22;3703;48.016;7.802;2022-08-25T09:53:21;28.20;1.00
7325;DHT22;3703;48.016;7.802;2022-08-25T09:56:09;28.30;99.90
7325;DHT22;3703;48.016;7.802;2022-08-25T09:59:19;28.60;1.00
7325;DHT22;3703;48.016;7.802;2022-08-25T10:02:22;28.20;99.90
7325;DHT22;3703;48.016;7.802;2022-08-25T10:05:21;28.30;1.00
7325;DHT22;3703;48.016;7.802;2022-08-25T10:08:13;28.60;1.00
7325;DHT22;3703;48.016;7.802;2022-08-25T10:11:13;28.60;90.60
7325;DHT22;3703;48.016;7.802;2022-08-25T10:14:04;28.90;99.90
7325;DHT22;3703;48.016;7.802;2022-08-25T10:17:12;29.10;8.80
7325;DHT22;3703;48.016;7.802;2022-08-25T10:20:16;29.30;1.00
7325;DHT22;3703;48.016;7.802;2022-08-25T10:23:12;29.30;1.00
7325;DHT22;3703;48.016;7.802;2022-08-25T10:26:04;29.50;99.90
7325;DHT22;3703;48.016;7.802;2022-08-25T10:29:06;29.70;99.90
7325;DHT22;3703;48.016;7.802;2022-08-25T10:32:02;29.80;99.90
7325;DHT22;3703;48.016;7.802;2022-08-25T10:34:55;29.90;1.00
7325;DHT22;3703;48.016;7.802;2022-08-25T10:37:56;29.70;1.00
7325;DHT22;3703;48.016;7.802;2022-08-25T10:40:54;29.70;1.00
7325;DHT22;3703;48.016;7.802;2022-08-25T10:43:50;29.90;1.00
7325;DHT22;3703;48.016;7.802;2022-08-25T10:46:46;30.20;1.00
7325;DHT22;3703;48.016;7.802;2022-08-25T10:49:38;30.40;99.90
7325;DHT22;3703;48.016;7.802;2022-08-25T10:52:36;30.50;99.90
7325;DHT22;3703;48.016;7.802;2022-08-25T10:55:29;30.30;99.90
7325;DHT22;3703;48.016;7.802;2022-08-25T10:58:30;29.80;99.90
7325;DHT22;3703;48.016;7.802;2022-08-25T11:01:47;29.40;99.90
7325;DHT22;3703;48.016;7.802;2022-08-25T11:04:45;29.40;99.90
7325;DHT22;3703;48.016;7.802;2022-08-25T11:07:37;29.30;99.90
7325;DHT22;3703;48.016;7.802;2022-08-25T11:10:37;29.30;99.90
7325;DHT22;3703;48.016;7.802;2022-08-25T11:13:37;29.70;99.90
7325;DHT22;3703;48.016;7.802;2022-08-25T11:16:35;30.10;99.90
7325;DHT22;3703;48.016;7.802;2022-08-25T11:19:29;30.50;99.90
7325;DHT22;3703;48.016;7.802;2022-08-25T11:22:22;30.80;99.90
7325;DHT22;3703;48.016;7.802;2022-08-25T11:25:16;30.90;11.40
7325;DHT22;3703;48.016;7.802;2022-08-25T11:28:10;31.00;1.00
7325;DHT22;3703;48.016;7.802;2022-08-25T11:31:03;30.70;1.00
7325;DHT22;3703;48.016;7.802;2022-08-25T11:33:58;30.40;1.00
7325;DHT22;3703;48.016;7.802;2022-08-25T11:36:50;30.70;14.10
7325;DHT22;3703;48.016;7.802;2022-08-25T11:39:57;30.60;1.00
7325;DHT22;3703;48.016;7.802;2022-08-25T11:43:20;30.40;1.00
7325;DHT22;3703;48.016;7.802;2022-08-25T11:46:27;30.00;1.00
7325;DHT22;3703;48.016;7.802;2022-08-25T11:49:45;30.40;4.70
7325;DHT22;3703;48.016;7.802;2022-08-25T11:52:47;30.80;36.60
7325;DHT22;3703;48.016;7.802;2022-08-25T11:55:48;30.90;1.00
7325;DHT22;3703;48.016;7.802;2022-08-25T11:58:45;30.80;1.00
7325;DHT22;3703;48.016;7.802;2022-08-25T12:02:16;30.90;1.00
7325;DHT22;3703;48.016;7.802;2022-08-25T12:05:50;30.90;1.00
7325;DHT22;3703;48.016;7.802;2022-08-25T12:09:16;31.50;1.00
7325;DHT22;3703;48.016;7.802;2022-08-25T12:12:27;31.80;1.00
7325;DHT22;3703;48.016;7.802;2022-08-25T12:15:20;31.40;1.00
7325;DHT22;3703;48.016;7.802;2022-08-25T12:18:15;31.40;1.00
7325;DHT22;3703;48.016;7.802;2022-08-25T12:21:31;31.50;1.00
7325;DHT22;3703;48.016;7.802;2022-08-25T12:24:21;31.20;1.00
7325;DHT22;3703;48.016;7.802;2022-08-25T12:27:27;31.00;1.00
7325;DHT22;3703;48.016;7.802;2022-08-25T12:30:19;31.20;1.00
7325;DHT22;3703;48.016;7.802;2022-08-25T12:33:15;31.20;1.00
7325;DHT22;3703;48.016;7.802;2022-08-25T12:36:26;31.60;1.00
7325;DHT22;3703;48.016;7.802;2022-08-25T12:39:19;32.30;1.00
7325;DHT22;3703;48.016;7.802;2022-08-25T12:42:21;32.30;1.00
7325;DHT22;3703;48.016;7.802;2022-08-25T12:45:29;32.50;1.00
7325;DHT22;3703;48.016;7.802;2022-08-25T12:48:54;32.90;1.00
7325;DHT22;3703;48.016;7.802;2022-08-25T12:51:51;32.70;1.00
7325;DHT22;3703;48.016;7.802;2022-08-25T12:54:47;32.60;1.00
7325;DHT22;3703;48.016;7.802;2022-08-25T12:57:41;32.50;1.00
7325;DHT22;3703;48.016;7.802;2022-08-25T13:00:36;32.10;1.00
7325;DHT22;3703;48.016;7.802;2022-08-25T13:03:52;32.30;1.00
7325;DHT22;3703;48.016;7.802;2022-08-25T13:10:39;32.30;1.00
7325;DHT22;3703;48.016;7.802;2022-08-25T13:13:38;31.80;1.00
7325;DHT22;3703;48.016;7.802;2022-08-25T13:16:31;31.90;1.00
7325;DHT22;3703;48.016;7.802;2022-08-25T13:19:22;32.70;1.00
7325;DHT22;3703;48.016;7.802;2022-08-25T13:22:13;33.60;1.00
7325;DHT22;3703;48.016;7.802;2022-08-25T13:25:03;34.30;1.00
7325;DHT22;3703;48.016;7.802;2022-08-25T13:27:54;34.60;1.00
7325;DHT22;3703;48.016;7.802;2022-08-25T13:30:43;34.00;99.90
7325;DHT22;3703;48.016;7.802;2022-08-25T13:33:31;33.70;99.90
7325;DHT22;3703;48.016;7.802;2022-08-25T13:36:22;33.20;99.90
7325;DHT22;3703;48.016;7.802;2022-08-25T13:39:43;33.40;99.90
7325;DHT22;3703;48.016;7.802;2022-08-25T13:42:31;33.20;99.90
7325;DHT22;3703;48.016;7.802;2022-08-25T13:45:21;33.30;99.90
7325;DHT22;3703;48.016;7.802;2022-08-25T13:48:10;33.80;99.90
7325;DHT22;3703;48.016;7.802;2022-08-25T13:51:07;34.30;99.90
7325;DHT22;3703;48.016;7.802;2022-08-25T13:53:59;34.50;99.90
7325;DHT22;3703;48.016;7.802;2022-08-25T13:56:47;34.60;99.90
7325;DHT22;3703;48.016;7.802;2022-08-25T13:59:37;34.00;99.90
7325;DHT22;3703;48.016;7.802;2022-08-25T14:02:40;33.20;99.90
7325;DHT22;3703;48.016;7.802;2022-08-25T14:05:36;33.60;99.90
7325;DHT22;3703;48.016;7.802;2022-08-25T14:08:31;33.40;99.90
7325;DHT22;3703;48.016;7.802;2022-08-25T14:11:28;34.00;99.90
7325;DHT22;3703;48.016;7.802;2022-08-25T14:14:32;33.40;99.90
7325;DHT22;3703;48.016;7.802;2022-08-25T14:17:21;33.10;99.90
7325;DHT22;3703;48.016;7.802;2022-08-25T14:20:17;33.60;99.90
7325;DHT22;3703;48.016;7.802;2022-08-25T14:23:09;34.30;99.90
7325;DHT22;3703;48.016;7.802;2022-08-25T14:25:58;34.00;99.90
7325;DHT22;3703;48.016;7.802;2022-08-25T14:28:47;33.10;99.90
7325;DHT22;3703;48.016;7.802;2022-08-25T14:31:36;32.60;99.90
7325;DHT22;3703;48.016;7.802;2022-08-25T14:34:31;32.80;99.90
7325;DHT22;3703;48.016;7.802;2022-08-25T14:37:21;33.10;99.90
7325;DHT22;3703;48.016;7.802;2022-08-25T14:40:10;33.50;99.90
7325;DHT22;3703;48.016;7.802;2022-08-25T14:43:00;33.70;99.90
7325;DHT22;3703;48.016;7.802;2022-08-25T14:45:49;33.70;99.90
7325;DHT22;3703;48.016;7.802;2022-08-25T14:48:40;33.50;99.90
7325;DHT22;3703;48.016;7.802;2022-08-25T14:51:30;33.10;88.70
7325;DHT22;3703;48.016;7.802;2022-08-25T14:54:22;32.70;59.10
7325;DHT22;3703;48.016;7.802;2022-08-25T14:57:11;32.50;49.20
7325;DHT22;3703;48.016;7.802;2022-08-25T14:59:59;32.70;56.80
7325;DHT22;3703;48.016;7.802;2022-08-25T15:02:49;32.90;54.00
7325;DHT22;3703;48.016;7.802;2022-08-25T15:05:37;32.90;46.70
7325;DHT22;3703;48.016;7.802;2022-08-25T15:08:26;33.10;49.20
7325;DHT22;3703;48.016;7.802;2022-08-25T15:11:33;33.20;45.20
7325;DHT22;3703;48.016;7.802;2022-08-25T15:14:22;33.00;37.00
7325;DHT22;3703;48.016;7.802;2022-08-25T15:17:11;33.20;42.20
7325;DHT22;3703;48.016;7.802;2022-08-25T15:20:00;33.40;48.50
7325;DHT22;3703;48.016;7.802;2022-08-25T15:22:49;33.30;37.40
7325;DHT22;3703;48.016;7.802;2022-08-25T15:25:36;33.50;38.20
7325;DHT22;3703;48.016;7.802;2022-08-25T15:28:24;33.60;44.80
7325;DHT22;3703;48.016;7.802;2022-08-25T15:31:12;33.80;46.90
7325;DHT22;3703;48.016;7.802;2022-08-25T15:33:59;33.90;50.30
7325;DHT22;3703;48.016;7.802;2022-08-25T15:36:49;33.90;44.90
7325;DHT22;3703;48.016;7.802;2022-08-25T15:39:37;33.70;31.60
7325;DHT22;3703;48.016;7.802;2022-08-25T15:42:25;33.40;21.10
7325;DHT22;3703;48.016;7.802;2022-08-25T15:45:13;32.80;10.10
7325;DHT22;3703;48.016;7.802;2022-08-25T15:48:01;32.60;7.40
7325;DHT22;3703;48.016;7.802;2022-08-25T15:50:53;32.40;14.30
7325;DHT22;3703;48.016;7.802;2022-08-25T15:53:43;32.40;24.90
7325;DHT22;3703;48.016;7.802;2022-08-25T15:56:30;32.60;35.80
7325;DHT22;3703;48.016;7.802;2022-08-25T15:59:19;32.60;35.80
7325;DHT22;3703;48.016;7.802;2022-08-25T16:02:07;32.40;32.70
7325;DHT22;3703;48.016;7.802;2022-08-25T16:04:54;32.40;35.00
7325;DHT22;3703;48.016;7.802;2022-08-25T16:07:42;32.30;35.10
7325;DHT22;3703;48.016;7.802;2022-08-25T16:10:34;32.20;32.00
7325;DHT22;3703;48.016;7.802;2022-08-25T16:13:22;32.20;37.50
7325;DHT22;3703;48.016;7.802;2022-08-25T16:16:10;32.20;39.70
7325;DHT22;3703;48.016;7.802;2022-08-25T16:18:58;32.20;44.20
7325;DHT22;3703;48.016;7.802;2022-08-25T16:21:46;32.20;50.50
7325;DHT22;3703;48.016;7.802;2022-08-25T16:24:34;32.00;46.10
7325;DHT22;3703;48.016;7.802;2022-08-25T16:27:23;32.00;46.70
7325;DHT22;3703;48.016;7.802;2022-08-25T16:30:12;32.00;48.60
7325;DHT22;3703;48.016;7.802;2022-08-25T16:32:59;31.90;51.40
7325;DHT22;3703;48.016;7.802;2022-08-25T16:35:47;32.00;56.70
7325;DHT22;3703;48.016;7.802;2022-08-25T16:38:35;31.70;50.80
7325;DHT22;3703;48.016;7.802;2022-08-25T16:41:25;31.70;52.80
7325;DHT22;3703;48.016;7.802;2022-08-25T16:44:20;31.60;52.20
7325;DHT22;3703;48.016;7.802;2022-08-25T16:47:09;31.60;54.90
7325;DHT22;3703;48.016;7.802;2022-08-25T16:49:58;31.50;57.40
7325;DHT22;3703;48.016;7.802;2022-08-25T16:52:46;31.50;59.10
7325;DHT22;3703;48.016;7.802;2022-08-25T16:55:59;31.40;57.80
7325;DHT22;3703;48.016;7.802;2022-08-25T16:58:47;31.30;61.00
7325;DHT22;3703;48.016;7.802;2022-08-25T17:01:37;31.10;65.40
7325;DHT22;3703;48.016;7.802;2022-08-25T17:04:25;31.10;64.80
7325;DHT22;3703;48.016;7.802;2022-08-25T17:07:13;31.00;66.20
7325;DHT22;3703;48.016;7.802;2022-08-25T17:10:02;30.90;69.80
7325;DHT22;3703;48.016;7.802;2022-08-25T17:12:50;30.80;72.60
7325;DHT22;3703;48.016;7.802;2022-08-25T17:15:39;30.80;79.70
7325;DHT22;3703;48.016;7.802;2022-08-25T17:18:29;30.70;81.10
7325;DHT22;3703;48.016;7.802;2022-08-25T17:21:18;30.70;88.50
7325;DHT22;3703;48.016;7.802;2022-08-25T17:24:07;30.70;91.30
7325;DHT22;3703;48.016;7.802;2022-08-25T17:26:55;30.60;91.10
7325;DHT22;3703;48.016;7.802;2022-08-25T17:29:45;30.60;90.90
7325;DHT22;3703;48.016;7.802;2022-08-25T17:32:35;30.50;91.10
7325;DHT22;3703;48.016;7.802;2022-08-25T17:35:24;30.50;93.00
7325;DHT22;3703;48.016;7.802;2022-08-25T17:38:13;30.50;95.60
7325;DHT22;3703;48.016;7.802;2022-08-25T17:41:03;30.50;98.80
7325;DHT22;3703;48.016;7.802;2022-08-25T17:43:52;30.50;99.90
7325;DHT22;3703;48.016;7.802;2022-08-25T17:46:41;30.40;99.90
7325;DHT22;3703;48.016;7.802;2022-08-25T17:49:29;30.40;99.90
7325;DHT22;3703;48.016;7.802;2022-08-25T17:52:18;30.40;99.90
7325;DHT22;3703;48.016;7.802;2022-08-25T17:55:06;30.40;99.90
7325;DHT22;3703;48.016;7.802;2022-08-25T17:57:56;30.30;99.90
7325;DHT22;3703;48.016;7.802;2022-08-25T18:00:43;30.20;99.90
7325;DHT22;3703;48.016;7.802;2022-08-25T18:03:32;30.20;99.90
7325;DHT22;3703;48.016;7.802;2022-08-25T18:06:21;30.00;99.90
7325;DHT22;3703;48.016;7.802;2022-08-25T18:09:10;29.90;99.90
7325;DHT22;3703;48.016;7.802;2022-08-25T18:11:58;29.70;99.90
7325;DHT22;3703;48.016;7.802;2022-08-25T18:14:46;29.60;99.90
7325;DHT22;3703;48.016;7.802;2022-08-25T18:17:33;29.50;99.90
7325;DHT22;3703;48.016;7.802;2022-08-25T18:20:22;29.40;99.90
7325;DHT22;3703;48.016;7.802;2022-08-25T18:23:10;29.40;99.90
7325;DHT22;3703;48.016;7.802;2022-08-25T18:26:00;29.30;99.90
7325;DHT22;3703;48.016;7.802;2022-08-25T18:28:48;29.20;99.90
7325;DHT22;3703;48.016;7.802;2022-08-25T18:31:35;29.00;99.90
7325;DHT22;3703;48.016;7.802;2022-08-25T18:34:23;28.90;99.90
7325;DHT22;3703;48.016;7.802;2022-08-25T18:37:11;28.90;99.90
7325;DHT22;3703;48.016;7.802;2022-08-25T18:40:18;28.80;99.90
7325;DHT22;3703;48.016;7.802;2022-08-25T18:43:11;28.70;99.90
7325;DHT22;3703;48.016;7.802;2022-08-25T18:46:00;28.50;1.00
7325;DHT22;3703;48.016;7.802;2022-08-25T18:48:49;28.50;1.00
7325;DHT22;3703;48.016;7.802;2022-08-25T18:51:37;28.10;99.90
7325;DHT22;3703;48.016;7.802;2022-08-25T18:54:25;27.70;1.00